createdAt,value
2022-08-22T00:00:26.530Z,22.57
2022-08-22T00:02:54.355Z,23.87
2022-08-22T00:02:58.484Z,26.29
2022-08-22T00:03:01.015Z,25.23
2022-08-22T00:03:02.938Z,25.65
2022-08-22T00:03:03.228Z,28.10
2022-08-22T00:03:07.954Z,22.58
2022-08-22T00:03:18.494Z,22.51
2022-08-22T00:05:58.615Z,22.53
2022-08-22T00:08:37.892Z,22.58
2022-08-22T00:11:34.794Z,22.50
2022-08-22T00:14:21.716Z,22.39
2022-08-22T00:17:03.275Z,22.49
2022-08-22T00:19:56.793Z,22.45
2022-08-22T00:22:53.009Z,22.23
2022-08-22T00:25:34.576Z,21.54
2022-08-22T00:28:26.036Z,21.62
2022-08-22T00:31:20.457Z,21.43
2022-08-22T00:34:11.763Z,21.73
2022-08-22T00:36:53.948Z,21.80
2022-08-22T00:39:53.898Z,21.34
2022-08-22T00:43:03.910Z,21.56
2022-08-22T00:46:18.882Z,21.75
2022-08-22T00:49:16.751Z,21.83
2022-08-22T00:52:05.832Z,21.66
2022-08-22T00:54:59.263Z,21.61
2022-08-22T00:58:05.726Z,21.52
2022-08-22T01:00:48.440Z,21.52
2022-08-22T01:03:46.019Z,21.50
2022-08-22T01:06:28.286Z,21.54
2022-08-22T01:09:07.603Z,21.57
2022-08-22T01:12:02.591Z,21.54
2022-08-22T01:15:06.602Z,21.24
2022-08-22T01:17:46.396Z,21.02
2022-08-22T01:20:26.262Z,21.39
2022-08-22T01:23:14.292Z,21.47
2022-08-22T01:25:50.900Z,21.48
2022-08-22T01:28:58.379Z,21.31
2022-08-22T01:32:17.934Z,21.25
2022-08-22T01:35:03.306Z,21.26
2022-08-22T01:38:10.427Z,21.17
2022-08-22T01:41:10.473Z,21.07
2022-08-22T01:44:04.989Z,21.07
2022-08-22T01:46:53.737Z,21.02
2022-08-22T01:49:33.251Z,20.97
2022-08-22T01:52:14.987Z,21.08
2022-08-22T01:54:57.522Z,21.07
2022-08-22T01:57:28.738Z,21.06
2022-08-22T02:00:11.179Z,21.12
2022-08-22T02:03:19.303Z,21.09
2022-08-22T02:06:00.468Z,21.20
2022-08-22T02:08:33.802Z,21.15
2022-08-22T02:11:05.875Z,21.22
2022-08-22T02:14:20.623Z,21.15
2022-08-22T02:16:58.051Z,20.94
2022-08-22T02:19:39.155Z,20.41
2022-08-22T02:22:44.347Z,20.64
2022-08-22T02:25:49.042Z,20.62
2022-08-22T02:28:27.612Z,20.59
2022-08-22T02:31:37.874Z,20.53
2022-08-22T02:34:40.584Z,20.57
2022-08-22T02:37:41.663Z,20.47
2022-08-22T02:40:33.730Z,20.57
2022-08-22T02:43:22.591Z,20.52
2022-08-22T02:46:02.787Z,20.48
2022-08-22T02:48:41.169Z,20.40
2022-08-22T02:51:29.427Z,20.36
2022-08-22T02:54:20.857Z,20.37
2022-08-22T02:57:14.303Z,20.43
2022-08-22T03:00:31.062Z,20.33
2022-08-22T03:03:15.868Z,20.23
2022-08-22T03:05:45.744Z,20.15
2022-08-22T03:08:36.333Z,20.00
2022-08-22T03:11:21.607Z,19.46
2022-08-22T03:14:06.795Z,19.19
2022-08-22T03:16:52.335Z,19.37
2022-08-22T03:19:31.428Z,19.39
2022-08-22T03:22:14.882Z,19.58
2022-08-22T03:25:03.202Z,19.79
2022-08-22T03:27:51.030Z,19.83
2022-08-22T03:30:23.316Z,19.96
2022-08-22T03:33:20.281Z,19.82
2022-08-22T03:35:50.982Z,19.89
2022-08-22T03:38:45.734Z,19.66
2022-08-22T03:41:43.142Z,18.97
2022-08-22T03:44:31.653Z,18.33
2022-08-22T03:47:10.500Z,17.99
2022-08-22T03:50:00.604Z,18.72
2022-08-22T03:53:18.662Z,18.86
2022-08-22T03:56:17.314Z,18.99
2022-08-22T03:58:52.684Z,18.95
2022-08-22T04:02:01.091Z,19.13
2022-08-22T04:05:01.735Z,19.26
2022-08-22T04:07:49.683Z,19.40
2022-08-22T04:10:19.755Z,19.03
2022-08-22T04:12:52.650Z,18.95
2022-08-22T04:15:55.672Z,18.44
2022-08-22T04:19:08.786Z,18.75
2022-08-22T04:21:58.827Z,18.64
2022-08-22T04:24:41.435Z,18.54
2022-08-22T04:27:47.518Z,18.43
2022-08-22T04:30:17.855Z,18.56
2022-08-22T04:32:52.704Z,19.02
2022-08-22T04:35:37.492Z,18.93
2022-08-22T04:38:30.464Z,18.94
2022-08-22T04:41:13.257Z,18.96
2022-08-22T04:43:52.627Z,18.88
2022-08-22T04:46:36.759Z,18.68
2022-08-22T04:49:16.142Z,18.40
2022-08-22T04:52:21.319Z,18.40
2022-08-22T04:54:58.940Z,18.61
2022-08-22T04:57:50.854Z,18.68
2022-08-22T05:00:20.859Z,18.54
2022-08-22T05:02:58.691Z,18.45
2022-08-22T05:05:41.375Z,18.59
2022-08-22T05:08:19.250Z,18.67
2022-08-22T05:10:52.388Z,18.41
2022-08-22T05:13:31.935Z,18.66
2022-08-22T05:16:06.944Z,18.81
2022-08-22T05:18:51.679Z,18.86
2022-08-22T05:21:27.423Z,18.80
2022-08-22T05:24:05.707Z,18.81
2022-08-22T05:26:41.994Z,18.77
2022-08-22T05:29:15.092Z,18.79
2022-08-22T05:32:03.576Z,18.81
2022-08-22T05:34:40.466Z,18.52
2022-08-22T05:37:15.810Z,18.44
2022-08-22T05:39:51.108Z,18.51
2022-08-22T05:42:29.576Z,18.42
2022-08-22T05:45:02.954Z,18.40
2022-08-22T05:47:43.563Z,18.41
2022-08-22T05:50:25.167Z,18.35
2022-08-22T05:53:16.496Z,18.35
2022-08-22T05:56:04.662Z,18.37
2022-08-22T05:58:55.302Z,18.29
2022-08-22T06:01:32.401Z,18.49
2022-08-22T06:04:41.373Z,18.54
2022-08-22T06:07:33.183Z,18.56
2022-08-22T06:10:24.854Z,18.64
2022-08-22T06:13:02.872Z,18.63
2022-08-22T06:16:18.197Z,18.64
2022-08-22T06:18:51.476Z,18.60
2022-08-22T06:21:34.956Z,18.59
2022-08-22T06:24:16.811Z,18.72
2022-08-22T06:26:50.775Z,18.72
2022-08-22T06:29:43.675Z,18.75
2022-08-22T06:32:59.351Z,18.71
2022-08-22T06:35:52.331Z,18.65
2022-08-22T06:38:28.095Z,18.62
2022-08-22T06:41:05.739Z,18.55
2022-08-22T06:43:44.473Z,18.53
2022-08-22T06:46:18.122Z,18.53
2022-08-22T06:48:50.279Z,18.56
2022-08-22T06:51:23.494Z,18.49
2022-08-22T06:53:59.322Z,18.40
2022-08-22T06:56:37.447Z,18.36
2022-08-22T06:59:16.255Z,18.37
2022-08-22T07:01:54.913Z,18.44
2022-08-22T07:04:27.854Z,17.97
2022-08-22T07:07:02.060Z,18.04
2022-08-22T07:09:41.978Z,18.02
2022-08-22T07:12:19.419Z,17.76
2022-08-22T07:14:53.020Z,17.59
2022-08-22T07:17:26.758Z,17.99
2022-08-22T07:20:23.764Z,17.89
2022-08-22T07:23:16.364Z,17.90
2022-08-22T07:26:26.233Z,17.92
2022-08-22T07:29:31.253Z,18.08
2022-08-22T07:32:13.923Z,18.34
2022-08-22T07:35:05.413Z,18.69
2022-08-22T07:37:35.438Z,18.92
2022-08-22T07:40:13.332Z,19.10
2022-08-22T07:42:55.394Z,19.21
2022-08-22T07:45:34.521Z,19.32
2022-08-22T07:48:26.627Z,19.37
2022-08-22T07:51:13.551Z,19.32
2022-08-22T07:53:51.329Z,19.38
2022-08-22T07:56:27.028Z,19.51
2022-08-22T07:59:12.766Z,19.56
2022-08-22T08:01:54.588Z,19.41
2022-08-22T08:04:39.524Z,19.39
2022-08-22T08:07:15.191Z,19.39
2022-08-22T08:09:55.074Z,19.32
2022-08-22T08:12:42.789Z,19.20
2022-08-22T08:15:19.782Z,19.01
2022-08-22T08:18:01.483Z,18.92
2022-08-22T08:20:32.155Z,18.87
2022-08-22T08:23:03.839Z,18.92
2022-08-22T08:25:53.604Z,18.98
2022-08-22T08:28:37.494Z,18.86
2022-08-22T08:31:21.687Z,18.90
2022-08-22T08:33:59.224Z,18.95
2022-08-22T08:37:07.181Z,19.14
2022-08-22T08:39:51.920Z,19.25
2022-08-22T08:42:28.131Z,19.29
2022-08-22T08:45:03.659Z,19.36
2022-08-22T08:48:07.563Z,19.47
2022-08-22T08:50:47.494Z,19.46
2022-08-22T08:53:43.238Z,19.57
2022-08-22T08:56:37.958Z,19.73
2022-08-22T09:06:05.497Z,19.90
2022-08-22T09:08:38.368Z,19.97
2022-08-22T09:11:28.586Z,20.12
2022-08-22T09:14:23.198Z,20.19
2022-08-22T09:17:08.680Z,20.25
2022-08-22T09:20:17.665Z,19.99
2022-08-22T09:23:34.271Z,19.75
2022-08-22T09:26:15.515Z,19.65
2022-08-22T09:29:11.228Z,19.64
2022-08-22T09:32:13.089Z,18.96
2022-08-22T09:34:53.265Z,18.91
2022-08-22T09:37:47.501Z,18.96
2022-08-22T09:40:16.617Z,19.86
2022-08-22T09:42:58.107Z,18.72
2022-08-22T09:45:43.911Z,19.08
2022-08-22T09:48:14.827Z,19.26
2022-08-22T09:51:04.663Z,19.29
2022-08-22T09:54:03.413Z,19.20
2022-08-22T09:56:47.730Z,18.88
2022-08-22T09:59:52.119Z,18.60
2022-08-22T10:02:37.456Z,17.55
2022-08-22T10:05:43.922Z,17.52
2022-08-22T10:08:20.644Z,18.53
2022-08-22T10:11:28.870Z,18.90
2022-08-22T10:14:09.603Z,19.15
2022-08-22T10:17:01.018Z,19.05
2022-08-22T10:19:34.685Z,19.40
2022-08-22T10:22:20.180Z,19.63
2022-08-22T10:24:52.976Z,19.82
2022-08-22T10:27:53.728Z,19.67
2022-08-22T10:30:51.503Z,19.70
2022-08-22T10:33:50.742Z,19.68
2022-08-22T10:37:02.421Z,19.63
2022-08-22T10:40:02.433Z,19.38
2022-08-22T10:42:42.939Z,19.28
2022-08-22T10:45:36.513Z,19.52
2022-08-22T10:48:09.905Z,19.73
2022-08-22T10:50:54.361Z,19.90
2022-08-22T10:53:55.995Z,20.46
2022-08-22T10:56:28.794Z,20.71
2022-08-22T10:59:37.953Z,20.90
2022-08-22T11:02:24.902Z,21.21
2022-08-22T11:05:20.138Z,20.98
2022-08-22T11:08:05.423Z,21.18
2022-08-22T11:11:02.926Z,21.59
2022-08-22T11:13:56.512Z,21.73
2022-08-22T11:16:41.792Z,21.93
2022-08-22T11:19:16.071Z,22.23
2022-08-22T11:22:17.353Z,22.43
2022-08-22T11:25:08.174Z,22.40
2022-08-22T11:28:00.138Z,21.77
2022-08-22T11:30:52.910Z,22.67
2022-08-22T11:33:47.090Z,22.47
2022-08-22T11:36:57.470Z,21.99
2022-08-22T11:39:44.268Z,21.82
2022-08-22T11:42:47.568Z,22.03
2022-08-22T11:45:38.174Z,22.39
2022-08-22T11:48:38.760Z,22.93
2022-08-22T11:51:34.237Z,23.03
2022-08-22T11:54:09.344Z,23.39
2022-08-22T11:56:51.162Z,23.71
2022-08-22T11:59:27.014Z,23.75
2022-08-22T12:02:08.759Z,23.59
2022-08-22T12:04:44.062Z,23.45
2022-08-22T12:07:23.922Z,23.53
2022-08-22T12:10:01.207Z,21.86
2022-08-22T12:12:57.366Z,22.94
2022-08-22T12:16:01.675Z,22.07
2022-08-22T12:18:38.267Z,22.69
2022-08-22T12:21:52.321Z,21.70
2022-08-22T12:24:33.601Z,21.81
2022-08-22T12:27:28.844Z,22.24
2022-08-22T12:30:15.189Z,23.35
2022-08-22T12:33:13.134Z,23.58
2022-08-22T12:36:20.167Z,22.70
2022-08-22T12:38:56.215Z,23.76
2022-08-22T12:41:58.963Z,23.99
2022-08-22T12:44:54.082Z,24.55
2022-08-22T12:47:24.716Z,24.79
2022-08-22T12:50:14.567Z,24.96
2022-08-22T12:53:11.639Z,25.02
2022-08-22T12:56:14.827Z,24.74
2022-08-22T12:58:51.188Z,24.36
2022-08-22T13:01:23.317Z,24.21
2022-08-22T13:04:19.300Z,23.80
2022-08-22T13:07:19.220Z,23.86
2022-08-22T13:09:58.917Z,24.88
2022-08-22T13:12:35.187Z,25.64
2022-08-22T13:15:32.323Z,26.93
2022-08-22T13:18:29.852Z,27.66
2022-08-22T13:21:08.577Z,28.03
2022-08-22T13:23:46.930Z,28.16
2022-08-22T13:26:32.860Z,28.34
2022-08-22T13:29:26.977Z,27.87
2022-08-22T13:32:02.795Z,27.81
2022-08-22T13:34:56.311Z,27.27
2022-08-22T13:37:43.088Z,26.57
2022-08-22T13:40:25.194Z,27.78
2022-08-22T13:43:08.310Z,28.07
2022-08-22T13:45:41.346Z,27.92
2022-08-22T13:48:17.082Z,29.17
2022-08-22T13:51:10.931Z,29.96
2022-08-22T13:54:01.054Z,30.01
2022-08-22T13:57:03.455Z,30.62
2022-08-22T13:59:52.718Z,30.41
2022-08-22T14:02:35.656Z,31.82
2022-08-22T14:05:25.924Z,31.68
2022-08-22T14:08:13.277Z,32.38
2022-08-22T14:11:29.119Z,32.93
2022-08-22T14:14:08.214Z,33.19
2022-08-22T14:16:49.726Z,31.84
2022-08-22T14:19:38.293Z,32.14
2022-08-22T14:22:32.460Z,33.11
2022-08-22T14:25:27.510Z,33.91
2022-08-22T14:28:06.120Z,34.12
2022-08-22T14:31:03.732Z,34.96
2022-08-22T14:33:40.888Z,32.40
2022-08-22T14:36:25.562Z,33.06
2022-08-22T14:39:30.988Z,30.88
2022-08-22T14:42:12.075Z,33.48
2022-08-22T14:44:42.736Z,34.49
2022-08-22T14:47:54.245Z,35.13
2022-08-22T14:50:47.484Z,33.00
2022-08-22T14:53:22.479Z,30.79
2022-08-22T14:56:04.504Z,30.69
2022-08-22T14:58:48.853Z,30.34
2022-08-22T15:01:23.508Z,29.02
2022-08-22T15:04:19.250Z,30.25
2022-08-22T15:06:58.505Z,31.63
2022-08-22T15:09:54.799Z,32.13
2022-08-22T15:12:35.581Z,29.19
2022-08-22T15:15:13.900Z,30.54
2022-08-22T15:17:51.032Z,29.33
2022-08-22T15:20:45.255Z,28.23
2022-08-22T15:23:23.143Z,27.74
2022-08-22T15:26:13.191Z,27.66
2022-08-22T15:28:52.875Z,28.21
2022-08-22T15:31:24.392Z,27.92
2022-08-22T15:34:09.335Z,28.47
2022-08-22T15:37:07.844Z,28.93
2022-08-22T15:40:32.870Z,27.57
2022-08-22T15:43:22.416Z,28.71
2022-08-22T15:46:10.059Z,27.90
2022-08-22T15:48:59.710Z,27.88
2022-08-22T15:51:38.937Z,30.34
2022-08-22T15:54:25.044Z,31.29
2022-08-22T15:57:17.458Z,27.61
2022-08-22T15:59:54.583Z,25.85
2022-08-22T16:02:28.714Z,25.29
2022-08-22T16:05:11.534Z,24.72
2022-08-22T16:08:08.656Z,23.95
2022-08-22T16:10:50.824Z,23.56
2022-08-22T16:13:34.886Z,24.32
2022-08-22T16:16:13.408Z,25.22
2022-08-22T16:18:44.706Z,25.29
2022-08-22T16:21:24.112Z,25.42
2022-08-22T16:23:57.931Z,25.69
2022-08-22T16:26:44.015Z,25.15
2022-08-22T16:29:18.147Z,26.42
2022-08-22T16:31:49.485Z,28.31
2022-08-22T16:34:35.626Z,27.96
2022-08-22T16:37:25.968Z,25.76
2022-08-22T16:40:02.858Z,25.41
2022-08-22T16:42:43.699Z,24.99
2022-08-22T16:45:21.060Z,25.33
2022-08-22T16:47:58.225Z,25.39
2022-08-22T16:50:37.525Z,26.31
2022-08-22T16:53:23.861Z,25.92
2022-08-22T16:56:27.100Z,25.09
2022-08-22T16:59:23.904Z,24.00
2022-08-22T17:02:24.658Z,23.60
2022-08-22T17:05:05.311Z,24.60
2022-08-22T17:08:04.783Z,25.89
2022-08-22T17:10:44.389Z,26.43
2022-08-22T17:13:42.746Z,25.35
2022-08-22T17:16:16.860Z,25.85
2022-08-22T17:18:58.002Z,25.67
2022-08-22T17:21:33.691Z,25.74
2022-08-22T17:24:04.114Z,26.05
2022-08-22T17:26:54.316Z,26.75
2022-08-22T17:29:33.254Z,26.65
2022-08-22T17:32:21.389Z,26.15
2022-08-22T17:35:28.379Z,28.55
2022-08-22T17:38:01.622Z,29.94
2022-08-22T17:41:12.875Z,27.24
2022-08-22T17:43:55.031Z,26.69
2022-08-22T17:46:50.731Z,28.48
2022-08-22T17:49:42.374Z,27.59
2022-08-22T17:52:28.271Z,28.32
2022-08-22T17:55:04.506Z,28.74
2022-08-22T17:58:12.260Z,29.66
2022-08-22T18:01:11.809Z,30.03
2022-08-22T18:03:52.830Z,29.31
2022-08-22T18:06:34.882Z,30.25
2022-08-22T18:09:20.523Z,30.95
2022-08-22T18:12:03.515Z,30.09
2022-08-22T18:15:04.519Z,30.23
2022-08-22T18:17:49.924Z,27.80
2022-08-22T18:20:32.310Z,26.87
2022-08-22T18:23:21.532Z,27.10
2022-08-22T18:26:18.700Z,27.23
2022-08-22T18:28:52.166Z,25.97
2022-08-22T18:31:39.950Z,25.54
2022-08-22T18:34:33.150Z,24.98
2022-08-22T18:37:32.418Z,24.25
2022-08-22T18:40:11.994Z,23.55
2022-08-22T18:42:52.221Z,23.27
2022-08-22T18:45:47.929Z,23.17
2022-08-22T18:49:11.570Z,24.10
2022-08-22T18:51:38.385Z,23.62
2022-08-22T18:54:09.080Z,24.13
2022-08-22T18:56:56.858Z,24.63
2022-08-22T19:00:00.715Z,24.86
2022-08-22T19:02:58.662Z,25.17
2022-08-22T19:05:41.435Z,26.82
2022-08-22T19:08:36.923Z,24.84
2022-08-22T19:11:37.817Z,24.70
2022-08-22T19:14:27.170Z,26.47
2022-08-22T19:17:15.607Z,25.84
2022-08-22T19:20:15.420Z,24.90
2022-08-22T19:22:53.107Z,24.25
2022-08-22T19:25:28.859Z,23.82
2022-08-22T19:28:08.277Z,25.05
2022-08-22T19:30:43.756Z,25.83
2022-08-22T19:33:34.789Z,24.69
2022-08-22T19:36:12.403Z,25.14
2022-08-22T19:39:03.585Z,28.01
2022-08-22T19:41:53.517Z,26.85
2022-08-22T19:44:23.473Z,25.82
2022-08-22T19:47:07.778Z,24.43
2022-08-22T19:49:41.201Z,23.58
2022-08-22T19:52:33.956Z,23.14
2022-08-22T19:55:34.374Z,22.92
2022-08-22T19:58:31.895Z,23.21
2022-08-22T20:01:08.403Z,23.81
2022-08-22T20:04:39.779Z,24.60
2022-08-22T20:07:14.805Z,26.02
2022-08-22T20:10:34.307Z,27.02
2022-08-22T20:13:08.927Z,26.96
2022-08-22T20:16:14.493Z,27.45
2022-08-22T20:19:08.615Z,27.87
2022-08-22T20:21:49.270Z,26.09
2022-08-22T20:24:28.667Z,26.50
2022-08-22T20:27:14.031Z,26.27
2022-08-22T20:30:12.187Z,26.78
2022-08-22T20:32:47.371Z,25.81
2022-08-22T20:35:35.895Z,26.55
2022-08-22T20:38:09.173Z,27.00
2022-08-22T20:40:56.013Z,26.96
2022-08-22T20:43:51.252Z,26.91
2022-08-22T20:46:53.597Z,27.08
2022-08-22T20:49:32.955Z,26.44
2022-08-22T20:52:12.364Z,27.13
2022-08-22T20:54:43.039Z,26.96
2022-08-22T20:57:18.650Z,26.79
2022-08-22T20:59:53.277Z,25.02
2022-08-22T21:02:31.201Z,25.54
2022-08-22T21:05:19.448Z,25.18
2022-08-22T21:08:13.832Z,25.02
2022-08-22T21:11:02.280Z,24.15
2022-08-22T21:13:36.939Z,23.95
2022-08-22T21:16:14.739Z,24.03
2022-08-22T21:18:48.521Z,24.56
2022-08-22T21:21:21.659Z,24.04
2022-08-22T21:24:12.129Z,25.43
2022-08-22T21:26:47.924Z,25.66
2022-08-22T21:29:18.510Z,25.64
2022-08-22T21:32:04.339Z,24.93
2022-08-22T21:34:47.294Z,25.67
2022-08-22T21:37:25.608Z,25.57
2022-08-22T21:40:16.921Z,25.18
2022-08-22T21:43:06.892Z,25.97
2022-08-22T21:45:39.969Z,24.73
2022-08-22T21:48:44.994Z,26.01
2022-08-22T21:51:33.326Z,26.15
2022-08-22T21:54:24.955Z,25.09
2022-08-22T21:57:00.443Z,24.75
2022-08-22T21:59:52.163Z,25.36
2022-08-22T22:02:45.514Z,24.39
2022-08-22T22:05:18.983Z,22.60
2022-08-22T22:07:49.318Z,23.36
2022-08-22T22:10:23.716Z,22.53
2022-08-22T22:12:57.243Z,22.41
2022-08-22T22:15:30.870Z,21.80
2022-08-22T22:18:01.897Z,21.87
2022-08-22T22:20:32.113Z,22.24
2022-08-22T22:23:02.652Z,23.02
2022-08-22T22:25:40.381Z,22.56
2022-08-22T22:28:30.204Z,21.83
2022-08-22T22:31:00.295Z,21.64
2022-08-22T22:33:36.516Z,22.00
2022-08-22T22:36:11.182Z,21.82
2022-08-22T22:38:42.529Z,21.44
2022-08-22T22:41:17.599Z,21.33
2022-08-22T22:43:48.143Z,21.70
2022-08-22T22:46:18.176Z,21.08
2022-08-22T22:48:48.758Z,21.19
2022-08-22T22:51:22.075Z,22.57
2022-08-22T22:53:52.705Z,23.08
2022-08-22T22:56:23.472Z,23.60
2022-08-22T22:59:00.884Z,24.45
2022-08-22T23:02:05.434Z,24.12
2022-08-22T23:04:37.507Z,24.32
2022-08-22T23:07:08.893Z,24.66
2022-08-22T23:09:44.686Z,24.30
2022-08-22T23:12:15.737Z,24.49
2022-08-22T23:14:46.307Z,23.43
2022-08-22T23:17:17.047Z,22.23
2022-08-22T23:19:47.782Z,22.61
2022-08-22T23:22:17.962Z,22.91
2022-08-22T23:24:50.778Z,22.91
2022-08-22T23:27:21.154Z,22.77
2022-08-22T23:29:51.955Z,22.18
2022-08-22T23:32:21.996Z,22.85
2022-08-22T23:34:52.698Z,23.14
2022-08-22T23:37:23.859Z,23.46
2022-08-22T23:39:54.470Z,23.59
2022-08-22T23:42:24.029Z,23.51
2022-08-22T23:44:54.448Z,23.64
2022-08-22T23:47:24.076Z,23.68
2022-08-22T23:49:54.597Z,23.72
2022-08-22T23:52:24.640Z,23.79
2022-08-22T23:54:55.741Z,23.81
2022-08-22T23:57:27.576Z,23.69
2022-08-22T23:59:59.968Z,23.66
